William J. Weber — WDC6537 — position and weather

sailwx.info

Track history (hours):
 
Tides and Currents Weather Stations Pressure Air Temp Water Temp Dewpoint Dewpoint Depression Visibility Wind Speed Wind Dir Waves Ship Positions

William J. Weber

Owner: AMERICAN COMMERCIAL BARGE LINE LLC, Jefferesonville, IN. More information available from US FCC via Universal Licensing System and Coast Guard Vessel Documentation Center.

Last reported at 2015-Jan-27 13:32 UTC. Time now 2015-Jan-28 18:12 UTC.
Position N 29°31' W 094°30'.

Length 23 m.

Type: Towing. MMSI: 367057640.

Date/timePositionNaut miles runAvg speedWind from/ knotsBaromVisibWave heightAir tempDewpointWater temp
2015-Jan-27 13:32N 29°31' W 094°30'19 3.5
2015-Jan-27 08:11N 29°23' W 094°48'5 7.3
2015-Jan-27 07:33N 29°27' W 094°51'7 6.9
2015-Jan-27 06:32N 29°33' W 094°55'8 6.8
2015-Jan-27 05:25N 29°40' W 094°58'5 6.1
2015-Jan-27 04:33N 29°44' W 095°02'5 4.7
2015-Jan-27 03:33N 29°44' W 095°08'4 4.3
2015-Jan-27 02:33N 29°44' W 095°13'4 4.0
2015-Jan-27 01:33N 29°45' W 095°17'0 0.0
2015-Jan-27 00:33N 29°45' W 095°17'0 0.1
2015-Jan-26 23:33N 29°45' W 095°17'0 0.0
2015-Jan-26 22:33N 29°45' W 095°17'0 0.0
2015-Jan-26 21:33N 29°45' W 095°17'0 0.0
2015-Jan-26 20:33N 29°45' W 095°17'0 0.0
2015-Jan-26 19:33N 29°45' W 095°17'0 0.0
2015-Jan-26 18:33N 29°45' W 095°17'0 0.0
2015-Jan-26 17:33N 29°45' W 095°17'0 0.0
2015-Jan-26 16:33N 29°45' W 095°17'0 0.0
2015-Jan-26 15:33N 29°45' W 095°17'0 0.0
2015-Jan-26 14:33N 29°45' W 095°17'0 0.0
2015-Jan-25 21:16N 29°45' W 095°17'0 0.0
2015-Jan-25 20:09N 29°45' W 095°17'0 0.1
2015-Jan-25 19:26N 29°44' W 095°17'0 0.1
2015-Jan-25 18:23N 29°45' W 095°17'1 0.8
2015-Jan-25 17:19N 29°44' W 095°17'2 2.2
2015-Jan-25 16:33N 29°43' W 095°15'3 2.7
2015-Jan-25 15:33N 29°44' W 095°12'3 2.6
2015-Jan-25 14:28N 29°44' W 095°09'2 2.7
2015-Jan-25 13:33N 29°45' W 095°06'1 1.3
2015-Jan-25 12:33N 29°46' W 095°05'0 0.1
2015-Jan-25 11:32N 29°46' W 095°05'0 0.0
2015-Jan-25 10:33N 29°46' W 095°05'1 0.7
2015-Jan-25 09:33N 29°46' W 095°06'0 0.0
2015-Jan-25 08:28N 29°46' W 095°06'1 0.8
2015-Jan-25 07:33N 29°46' W 095°05'1 1.1
2015-Jan-25 06:33N 29°45' W 095°04'4 3.7
2015-Jan-25 05:33N 29°43' W 095°01'3 3.4
2015-Jan-25 04:33N 29°40' W 094°59'5 4.9
2015-Jan-25 03:33N 29°36' W 094°56'5 5.4
2015-Jan-25 02:33N 29°31' W 094°53'  
Track history (hours):
 
Tides and Currents Weather Stations Pressure Air Temp Water Temp Dewpoint Dewpoint Depression Visibility Wind Speed Wind Dir Waves Ship Positions

William J. Weber

Owner: AMERICAN COMMERCIAL BARGE LINE LLC, Jefferesonville, IN. More information available from US FCC via Universal Licensing System and Coast Guard Vessel Documentation Center.

Last reported at 2015-Jan-27 13:32 UTC. Time now 2015-Jan-28 18:12 UTC.
Position N 29°31' W 094°30'.

Length 23 m.

Type: Towing. MMSI: 367057640.

Date/timePositionNaut miles runAvg speedWind from/ knotsBaromVisibWave heightAir tempDewpointWater temp
2015-Jan-27 13:32N 29°31' W 094°30'19 3.5
2015-Jan-27 08:11N 29°23' W 094°48'5 7.3
2015-Jan-27 07:33N 29°27' W 094°51'7 6.9
2015-Jan-27 06:32N 29°33' W 094°55'8 6.8
2015-Jan-27 05:25N 29°40' W 094°58'5 6.1
2015-Jan-27 04:33N 29°44' W 095°02'5 4.7
2015-Jan-27 03:33N 29°44' W 095°08'4 4.3
2015-Jan-27 02:33N 29°44' W 095°13'4 4.0
2015-Jan-27 01:33N 29°45' W 095°17'0 0.0
2015-Jan-27 00:33N 29°45' W 095°17'0 0.1
2015-Jan-26 23:33N 29°45' W 095°17'0 0.0
2015-Jan-26 22:33N 29°45' W 095°17'0 0.0
2015-Jan-26 21:33N 29°45' W 095°17'0 0.0
2015-Jan-26 20:33N 29°45' W 095°17'0 0.0
2015-Jan-26 19:33N 29°45' W 095°17'0 0.0
2015-Jan-26 18:33N 29°45' W 095°17'0 0.0
2015-Jan-26 17:33N 29°45' W 095°17'0 0.0
2015-Jan-26 16:33N 29°45' W 095°17'0 0.0
2015-Jan-26 15:33N 29°45' W 095°17'0 0.0
2015-Jan-26 14:33N 29°45' W 095°17'0 0.0
2015-Jan-25 21:16N 29°45' W 095°17'0 0.0
2015-Jan-25 20:09N 29°45' W 095°17'0 0.1
2015-Jan-25 19:26N 29°44' W 095°17'0 0.1
2015-Jan-25 18:23N 29°45' W 095°17'1 0.8
2015-Jan-25 17:19N 29°44' W 095°17'2 2.2
2015-Jan-25 16:33N 29°43' W 095°15'3 2.7
2015-Jan-25 15:33N 29°44' W 095°12'3 2.6
2015-Jan-25 14:28N 29°44' W 095°09'2 2.7
2015-Jan-25 13:33N 29°45' W 095°06'1 1.3
2015-Jan-25 12:33N 29°46' W 095°05'0 0.1
2015-Jan-25 11:32N 29°46' W 095°05'0 0.0
2015-Jan-25 10:33N 29°46' W 095°05'1 0.7
2015-Jan-25 09:33N 29°46' W 095°06'0 0.0
2015-Jan-25 08:28N 29°46' W 095°06'1 0.8
2015-Jan-25 07:33N 29°46' W 095°05'1 1.1
2015-Jan-25 06:33N 29°45' W 095°04'4 3.7
2015-Jan-25 05:33N 29°43' W 095°01'3 3.4
2015-Jan-25 04:33N 29°40' W 094°59'5 4.9
2015-Jan-25 03:33N 29°36' W 094°56'5 5.4
2015-Jan-25 02:33N 29°31' W 094°53'  

Dump ship's entire track history